sensor_id;sensor_type;location;lat;lon;timestamp;pressure;altitude;pressure_sealevel;temperature;humidity
64544;BME280;50936;51.660;5.616;2022-07-29T00:00:13;101362.06;;;18.31;58.06
64544;BME280;50936;51.660;5.616;2022-07-29T00:02:40;101355.59;;;18.32;58.49
64544;BME280;50936;51.660;5.616;2022-07-29T00:05:08;101355.88;;;18.29;58.24
64544;BME280;50936;51.660;5.616;2022-07-29T00:07:36;101345.22;;;18.26;58.41
64544;BME280;50936;51.660;5.616;2022-07-29T00:10:03;101354.47;;;18.25;58.59
64544;BME280;50936;51.660;5.616;2022-07-29T00:12:30;101344.66;;;18.22;58.73
64544;BME280;50936;51.660;5.616;2022-07-29T00:14:57;101345.81;;;18.20;58.76
64544;BME280;50936;51.660;5.616;2022-07-29T00:17:24;101345.97;;;18.18;59.07
64544;BME280;50936;51.660;5.616;2022-07-29T00:19:51;101344.13;;;18.19;58.68
64544;BME280;50936;51.660;5.616;2022-07-29T00:22:19;101345.81;;;18.20;59.04
64544;BME280;50936;51.660;5.616;2022-07-29T00:24:49;101355.06;;;18.19;59.09
64544;BME280;50936;51.660;5.616;2022-07-29T00:27:17;101345.25;;;18.16;59.10
64544;BME280;50936;51.660;5.616;2022-07-29T00:29:44;101347.97;;;18.16;58.90
64544;BME280;50936;51.660;5.616;2022-07-29T00:32:11;101341.66;;;18.16;59.30
64544;BME280;50936;51.660;5.616;2022-07-29T00:34:38;101337.19;;;18.15;59.07
64544;BME280;50936;51.660;5.616;2022-07-29T00:37:24;101335.47;;;18.14;59.70
64544;BME280;50936;51.660;5.616;2022-07-29T00:39:51;101335.47;;;18.14;59.52
64544;BME280;50936;51.660;5.616;2022-07-29T00:42:18;101325.53;;;18.13;59.89
64544;BME280;50936;51.660;5.616;2022-07-29T00:44:45;101329.56;;;18.08;60.03
64544;BME280;50936;51.660;5.616;2022-07-29T00:47:12;101336.03;;;18.07;59.85
64544;BME280;50936;51.660;5.616;2022-07-29T00:49:41;101338.75;;;18.07;60.24
64544;BME280;50936;51.660;5.616;2022-07-29T00:52:10;101338.03;;;18.05;60.00
64544;BME280;50936;51.660;5.616;2022-07-29T00:54:39;101337.47;;;18.02;60.45
64544;BME280;50936;51.660;5.616;2022-07-29T00:57:11;101340.91;;;17.94;60.73
64544;BME280;50936;51.660;5.616;2022-07-29T00:59:38;101342.94;;;17.92;61.12
64544;BME280;50936;51.660;5.616;2022-07-29T01:02:06;101344.38;;;17.86;61.40
64544;BME280;50936;51.660;5.616;2022-07-29T01:04:33;101343.75;;;17.83;61.81
64544;BME280;50936;51.660;5.616;2022-07-29T01:07:04;101357.81;;;17.78;61.75
64544;BME280;50936;51.660;5.616;2022-07-29T01:09:33;101353.53;;;17.76;61.65
64544;BME280;50936;51.660;5.616;2022-07-29T01:12:25;101367.19;;;17.76;62.22
64544;BME280;50936;51.660;5.616;2022-07-29T01:14:55;101369.91;;;17.76;61.88
64544;BME280;50936;51.660;5.616;2022-07-29T01:17:31;101385.88;;;17.80;61.41
64544;BME280;50936;51.660;5.616;2022-07-29T01:20:12;101391.53;;;17.98;61.07
64544;BME280;50936;51.660;5.616;2022-07-29T01:29:02;101377.44;;;17.93;61.21
64544;BME280;50936;51.660;5.616;2022-07-29T01:32:10;101382.00;;;17.83;61.83
64544;BME280;50936;51.660;5.616;2022-07-29T01:35:17;101390.69;;;17.88;62.24
64544;BME280;50936;51.660;5.616;2022-07-29T01:37:57;101369.19;;;17.83;62.63
64544;BME280;50936;51.660;5.616;2022-07-29T01:40:47;101362.72;;;17.75;63.04
64544;BME280;50936;51.660;5.616;2022-07-29T01:43:21;101360.81;;;17.65;63.41
64544;BME280;50936;51.660;5.616;2022-07-29T01:45:59;101353.19;;;17.59;63.51
64544;BME280;50936;51.660;5.616;2022-07-29T01:48:57;101345.00;;;17.59;64.55
64544;BME280;50936;51.660;5.616;2022-07-29T01:51:41;101334.66;;;17.53;65.20
64544;BME280;50936;51.660;5.616;2022-07-29T01:54:30;101308.03;;;17.45;66.04
64544;BME280;50936;51.660;5.616;2022-07-29T01:57:03;101303.28;;;17.38;67.34
64544;BME280;50936;51.660;5.616;2022-07-29T01:59:34;101299.66;;;17.27;67.52
64544;BME280;50936;51.660;5.616;2022-07-29T02:02:04;101291.28;;;17.19;68.76
64544;BME280;50936;51.660;5.616;2022-07-29T02:04:36;101292.72;;;17.13;71.96
64544;BME280;50936;51.660;5.616;2022-07-29T02:07:06;101291.66;;;17.05;70.90
64544;BME280;50936;51.660;5.616;2022-07-29T02:09:36;101282.16;;;16.89;75.73
64544;BME280;50936;51.660;5.616;2022-07-29T02:12:06;101282.94;;;16.59;78.60
64544;BME280;50936;51.660;5.616;2022-07-29T02:14:38;101274.47;;;16.31;84.88
64544;BME280;50936;51.660;5.616;2022-07-29T02:17:10;101268.56;;;16.05;88.34
64544;BME280;50936;51.660;5.616;2022-07-29T02:19:40;101278.06;;;15.78;85.94
64544;BME280;50936;51.660;5.616;2022-07-29T02:22:11;101276.16;;;15.58;85.31
64544;BME280;50936;51.660;5.616;2022-07-29T02:24:41;101265.06;;;15.50;86.67
64544;BME280;50936;51.660;5.616;2022-07-29T02:27:09;101268.25;;;15.44;91.18
64544;BME280;50936;51.660;5.616;2022-07-29T02:29:39;101261.59;;;15.36;90.87
64544;BME280;50936;51.660;5.616;2022-07-29T02:32:08;101264.72;;;15.32;91.49
64544;BME280;50936;51.660;5.616;2022-07-29T02:34:38;101271.25;;;15.29;92.55
64544;BME280;50936;51.660;5.616;2022-07-29T02:37:09;101271.53;;;15.26;91.00
64544;BME280;50936;51.660;5.616;2022-07-29T02:39:39;101267.19;;;15.24;93.67
64544;BME280;50936;51.660;5.616;2022-07-29T02:42:11;101265.34;;;15.24;96.79
64544;BME280;50936;51.660;5.616;2022-07-29T02:44:42;101257.97;;;15.15;98.82
64544;BME280;50936;51.660;5.616;2022-07-29T02:47:26;101254.75;;;15.10;99.68
64544;BME280;50936;51.660;5.616;2022-07-29T02:53:02;101248.56;;;14.96;100.00
64544;BME280;50936;51.660;5.616;2022-07-29T02:55:40;101250.53;;;14.94;100.00
64544;BME280;50936;51.660;5.616;2022-07-29T02:58:21;101247.09;;;14.92;100.00
64544;BME280;50936;51.660;5.616;2022-07-29T03:00:59;101241.91;;;14.89;100.00
64544;BME280;50936;51.660;5.616;2022-07-29T03:03:35;101242.16;;;14.86;100.00
64544;BME280;50936;51.660;5.616;2022-07-29T03:06:04;101242.91;;;14.88;100.00
64544;BME280;50936;51.660;5.616;2022-07-29T03:08:55;101252.78;;;14.89;100.00
64544;BME280;50936;51.660;5.616;2022-07-29T03:11:24;101250.06;;;14.89;100.00
64544;BME280;50936;51.660;5.616;2022-07-29T03:14:12;101250.81;;;14.91;100.00
64544;BME280;50936;51.660;5.616;2022-07-29T03:16:40;101246.34;;;14.90;100.00
64544;BME280;50936;51.660;5.616;2022-07-29T03:19:08;101249.91;;;14.91;100.00
64544;BME280;50936;51.660;5.616;2022-07-29T03:21:35;101251.78;;;14.90;100.00
64544;BME280;50936;51.660;5.616;2022-07-29T03:24:02;101255.25;;;14.92;100.00
64544;BME280;50936;51.660;5.616;2022-07-29T03:26:35;101257.72;;;14.95;100.00
64544;BME280;50936;51.660;5.616;2022-07-29T03:29:02;101253.75;;;14.99;100.00
64544;BME280;50936;51.660;5.616;2022-07-29T03:31:29;101265.25;;;15.03;99.90
64544;BME280;50936;51.660;5.616;2022-07-29T03:33:56;101262.41;;;15.05;99.43
64544;BME280;50936;51.660;5.616;2022-07-29T03:36:23;101254.97;;;15.07;99.14
64544;BME280;50936;51.660;5.616;2022-07-29T03:38:51;101253.00;;;15.09;99.09
64544;BME280;50936;51.660;5.616;2022-07-29T03:41:19;101261.03;;;15.10;99.12
64544;BME280;50936;51.660;5.616;2022-07-29T03:43:49;101260.19;;;15.10;98.40
64544;BME280;50936;51.660;5.616;2022-07-29T03:46:20;101258.19;;;15.12;98.05
64544;BME280;50936;51.660;5.616;2022-07-29T03:48:52;101266.25;;;15.13;97.95
64544;BME280;50936;51.660;5.616;2022-07-29T03:51:23;101270.78;;;15.13;97.74
64544;BME280;50936;51.660;5.616;2022-07-29T03:54:01;101267.94;;;15.14;97.45
64544;BME280;50936;51.660;5.616;2022-07-29T03:56:39;101272.53;;;15.14;97.80
64544;BME280;50936;51.660;5.616;2022-07-29T03:59:10;101271.69;;;15.13;98.40
64544;BME280;50936;51.660;5.616;2022-07-29T04:01:39;101276.22;;;15.13;98.28
64544;BME280;50936;51.660;5.616;2022-07-29T04:04:08;101280.56;;;15.15;98.16
64544;BME280;50936;51.660;5.616;2022-07-29T04:06:43;101281.69;;;15.24;97.17
64544;BME280;50936;51.660;5.616;2022-07-29T04:09:14;101282.91;;;15.20;97.07
64544;BME280;50936;51.660;5.616;2022-07-29T04:11:41;101283.19;;;15.17;96.71
64544;BME280;50936;51.660;5.616;2022-07-29T04:14:30;101278.84;;;15.14;97.55
64544;BME280;50936;51.660;5.616;2022-07-29T04:16:59;101279.72;;;15.15;98.29
64544;BME280;50936;51.660;5.616;2022-07-29T04:19:30;101275.13;;;15.15;97.88
64544;BME280;50936;51.660;5.616;2022-07-29T04:21:58;101281.44;;;15.16;99.21
64544;BME280;50936;51.660;5.616;2022-07-29T04:24:26;101266.13;;;15.15;99.30
64544;BME280;50936;51.660;5.616;2022-07-29T04:26:53;101274.28;;;15.15;99.38
64544;BME280;50936;51.660;5.616;2022-07-29T04:29:20;101266.13;;;15.15;99.92
64544;BME280;50936;51.660;5.616;2022-07-29T04:31:47;101272.53;;;15.14;100.00
64544;BME280;50936;51.660;5.616;2022-07-29T04:34:14;101273.06;;;15.08;99.69
64544;BME280;50936;51.660;5.616;2022-07-29T04:36:41;101262.16;;;15.08;99.63
64544;BME280;50936;51.660;5.616;2022-07-29T04:39:08;101267.34;;;15.11;99.55
64544;BME280;50936;51.660;5.616;2022-07-29T04:41:34;101275.13;;;15.15;99.19
64544;BME280;50936;51.660;5.616;2022-07-29T04:44:01;101281.31;;;15.17;99.17
64544;BME280;50936;51.660;5.616;2022-07-29T04:46:32;101279.72;;;15.15;98.98
64544;BME280;50936;51.660;5.616;2022-07-29T04:49:00;101274.28;;;15.15;99.58
64544;BME280;50936;51.660;5.616;2022-07-29T04:51:27;101272.53;;;15.14;99.60
64544;BME280;50936;51.660;5.616;2022-07-29T04:53:53;101283.28;;;15.15;99.24
64544;BME280;50936;51.660;5.616;2022-07-29T04:56:20;101288.34;;;15.20;98.72
64544;BME280;50936;51.660;5.616;2022-07-29T04:58:47;101302.44;;;15.25;98.40
64544;BME280;50936;51.660;5.616;2022-07-29T05:01:14;101303.06;;;15.29;97.58
64544;BME280;50936;51.660;5.616;2022-07-29T05:03:41;101319.50;;;15.27;98.03
64544;BME280;50936;51.660;5.616;2022-07-29T05:06:08;101311.63;;;15.24;97.76
64544;BME280;50936;51.660;5.616;2022-07-29T05:08:35;101304.66;;;15.20;98.33
64544;BME280;50936;51.660;5.616;2022-07-29T05:11:02;101306.03;;;15.14;98.85
64544;BME280;50936;51.660;5.616;2022-07-29T05:13:38;101304.56;;;15.10;98.90
64544;BME280;50936;51.660;5.616;2022-07-29T05:16:12;101316.31;;;15.11;98.99
64544;BME280;50936;51.660;5.616;2022-07-29T05:18:39;101314.09;;;15.16;98.70
64544;BME280;50936;51.660;5.616;2022-07-29T05:21:06;101309.03;;;15.23;98.74
64544;BME280;50936;51.660;5.616;2022-07-29T05:23:33;101314.19;;;15.26;98.74
64544;BME280;50936;51.660;5.616;2022-07-29T05:26:00;101310.50;;;15.27;98.30
64544;BME280;50936;51.660;5.616;2022-07-29T05:28:27;101327.19;;;15.33;98.46
64544;BME280;50936;51.660;5.616;2022-07-29T05:30:54;101328.66;;;15.37;97.90
64544;BME280;50936;51.660;5.616;2022-07-29T05:33:20;101331.13;;;15.40;97.75
64544;BME280;50936;51.660;5.616;2022-07-29T05:36:04;101317.53;;;15.40;97.32
64544;BME280;50936;51.660;5.616;2022-07-29T05:38:34;101314.31;;;15.35;97.08
64544;BME280;50936;51.660;5.616;2022-07-29T05:41:02;101312.06;;;15.29;96.95
64544;BME280;50936;51.660;5.616;2022-07-29T05:43:29;101320.25;;;15.29;96.86
64544;BME280;50936;51.660;5.616;2022-07-29T05:45:56;101331.00;;;15.31;96.79
64544;BME280;50936;51.660;5.616;2022-07-29T05:48:23;101330.38;;;15.38;96.86
64544;BME280;50936;51.660;5.616;2022-07-29T05:50:51;101330.00;;;15.43;96.26
64544;BME280;50936;51.660;5.616;2022-07-29T05:53:17;101331.34;;;15.49;95.99
64544;BME280;50936;51.660;5.616;2022-07-29T05:55:49;101319.81;;;15.56;96.04
64544;BME280;50936;51.660;5.616;2022-07-29T05:58:17;101329.63;;;15.59;95.21
64544;BME280;50936;51.660;5.616;2022-07-29T06:00:45;101327.34;;;15.64;95.12
64544;BME280;50936;51.660;5.616;2022-07-29T06:03:12;101333.28;;;15.69;95.00
64544;BME280;50936;51.660;5.616;2022-07-29T06:05:39;101333.03;;;15.72;94.01
64544;BME280;50936;51.660;5.616;2022-07-29T06:08:05;101331.28;;;15.71;93.95
64544;BME280;50936;51.660;5.616;2022-07-29T06:10:37;101332.81;;;15.75;93.80
64544;BME280;50936;51.660;5.616;2022-07-29T06:13:04;101332.53;;;15.78;93.54
64544;BME280;50936;51.660;5.616;2022-07-29T06:15:31;101332.31;;;15.82;92.86
64544;BME280;50936;51.660;5.616;2022-07-29T06:17:58;101333.16;;;15.82;92.54
64544;BME280;50936;51.660;5.616;2022-07-29T06:20:30;101335.50;;;15.87;92.49
64544;BME280;50936;51.660;5.616;2022-07-29T06:22:59;101327.81;;;15.92;91.02
64544;BME280;50936;51.660;5.616;2022-07-29T06:25:26;101338.09;;;15.88;91.11
64544;BME280;50936;51.660;5.616;2022-07-29T06:27:56;101336.97;;;15.91;91.06
64544;BME280;50936;51.660;5.616;2022-07-29T06:30:23;101330.00;;;15.98;91.39
64544;BME280;50936;51.660;5.616;2022-07-29T06:32:50;101327.66;;;16.05;90.84
64544;BME280;50936;51.660;5.616;2022-07-29T06:35:17;101333.69;;;16.08;90.08
64544;BME280;50936;51.660;5.616;2022-07-29T06:38:04;101331.69;;;16.10;90.09
64544;BME280;50936;51.660;5.616;2022-07-29T06:40:51;101334.91;;;16.15;90.05
64544;BME280;50936;51.660;5.616;2022-07-29T06:43:32;101334.38;;;16.22;89.65
64544;BME280;50936;51.660;5.616;2022-07-29T06:46:20;101337.28;;;16.30;89.79
64544;BME280;50936;51.660;5.616;2022-07-29T06:48:48;101336.78;;;16.36;89.52
64544;BME280;50936;51.660;5.616;2022-07-29T06:51:17;101335.97;;;16.45;89.50
64544;BME280;50936;51.660;5.616;2022-07-29T06:53:50;101340.88;;;16.51;88.33
64544;BME280;50936;51.660;5.616;2022-07-29T06:56:24;101332.19;;;16.58;88.42
64544;BME280;50936;51.660;5.616;2022-07-29T06:58:51;101332.63;;;16.63;87.94
64544;BME280;50936;51.660;5.616;2022-07-29T07:01:18;101333.81;;;16.70;86.07
64544;BME280;50936;51.660;5.616;2022-07-29T07:03:47;101330.13;;;16.71;86.53
64544;BME280;50936;51.660;5.616;2022-07-29T07:06:14;101329.19;;;16.82;85.88
64544;BME280;50936;51.660;5.616;2022-07-29T07:08:41;101338.59;;;16.89;85.45
64544;BME280;50936;51.660;5.616;2022-07-29T07:11:08;101338.63;;;16.99;84.81
64544;BME280;50936;51.660;5.616;2022-07-29T07:13:35;101324.53;;;17.03;85.38
64544;BME280;50936;51.660;5.616;2022-07-29T07:16:03;101332.94;;;17.11;84.88
64544;BME280;50936;51.660;5.616;2022-07-29T07:18:30;101335.09;;;17.18;84.59
64544;BME280;50936;51.660;5.616;2022-07-29T07:20:57;101338.16;;;17.24;84.37
64544;BME280;50936;51.660;5.616;2022-07-29T07:23:24;101333.88;;;17.31;84.17
64544;BME280;50936;51.660;5.616;2022-07-29T07:25:52;101340.38;;;17.40;84.31
64544;BME280;50936;51.660;5.616;2022-07-29T07:28:19;101333.63;;;17.44;83.18
64544;BME280;50936;51.660;5.616;2022-07-29T07:30:51;101343.13;;;17.50;83.18
64544;BME280;50936;51.660;5.616;2022-07-29T07:33:19;101338.81;;;17.57;82.23
64544;BME280;50936;51.660;5.616;2022-07-29T07:35:46;101339.13;;;17.64;82.77
64544;BME280;50936;51.660;5.616;2022-07-29T07:38:13;101347.34;;;17.74;82.85
64544;BME280;50936;51.660;5.616;2022-07-29T07:40:40;101348.06;;;17.76;81.83
64544;BME280;50936;51.660;5.616;2022-07-29T07:43:08;101350.06;;;17.74;80.92
64544;BME280;50936;51.660;5.616;2022-07-29T07:45:34;101353.78;;;17.73;80.90
64544;BME280;50936;51.660;5.616;2022-07-29T07:48:04;101357.56;;;17.72;81.09
64544;BME280;50936;51.660;5.616;2022-07-29T07:50:31;101356.25;;;17.76;81.60
64544;BME280;50936;51.660;5.616;2022-07-29T07:52:58;101363.03;;;17.81;81.72
64544;BME280;50936;51.660;5.616;2022-07-29T07:55:25;101357.41;;;17.83;81.42
64544;BME280;50936;51.660;5.616;2022-07-29T07:57:53;101354.44;;;17.86;80.91
64544;BME280;50936;51.660;5.616;2022-07-29T08:00:21;101348.69;;;17.89;81.17
64544;BME280;50936;51.660;5.616;2022-07-29T08:02:49;101347.69;;;17.90;80.48
64544;BME280;50936;51.660;5.616;2022-07-29T08:05:17;101360.31;;;17.91;79.61
64544;BME280;50936;51.660;5.616;2022-07-29T08:07:47;101366.81;;;17.90;79.36
64544;BME280;50936;51.660;5.616;2022-07-29T08:10:15;101360.16;;;17.83;79.19
64544;BME280;50936;51.660;5.616;2022-07-29T08:13:06;101374.28;;;17.88;80.20
64544;BME280;50936;51.660;5.616;2022-07-29T08:15:34;101372.00;;;18.03;79.73
64544;BME280;50936;51.660;5.616;2022-07-29T08:18:02;101371.44;;;18.19;79.59
64544;BME280;50936;51.660;5.616;2022-07-29T08:20:35;101377.75;;;18.29;77.57
64544;BME280;50936;51.660;5.616;2022-07-29T08:23:03;101375.75;;;18.31;77.32
64544;BME280;50936;51.660;5.616;2022-07-29T08:25:31;101376.88;;;18.58;77.18
64544;BME280;50936;51.660;5.616;2022-07-29T08:28:03;101378.47;;;19.27;76.24
64544;BME280;50936;51.660;5.616;2022-07-29T08:30:31;101373.09;;;19.91;74.80
64544;BME280;50936;51.660;5.616;2022-07-29T08:32:58;101374.19;;;20.52;73.06
64544;BME280;50936;51.660;5.616;2022-07-29T08:35:28;101373.59;;;21.10;69.93
64544;BME280;50936;51.660;5.616;2022-07-29T08:38:01;101373.81;;;21.51;68.39
64544;BME280;50936;51.660;5.616;2022-07-29T08:40:29;101375.34;;;21.97;63.72
64544;BME280;50936;51.660;5.616;2022-07-29T08:43:03;101380.56;;;22.24;64.43
64544;BME280;50936;51.660;5.616;2022-07-29T08:45:44;101373.72;;;22.45;62.91
64544;BME280;50936;51.660;5.616;2022-07-29T08:48:19;101370.28;;;22.59;59.54
64544;BME280;50936;51.660;5.616;2022-07-29T08:50:52;101364.09;;;22.57;60.00
64544;BME280;50936;51.660;5.616;2022-07-29T08:53:21;101369.44;;;22.59;60.53
64544;BME280;50936;51.660;5.616;2022-07-29T08:55:50;101368.91;;;22.55;59.52
64544;BME280;50936;51.660;5.616;2022-07-29T08:58:18;101370.59;;;22.56;60.16
64544;BME280;50936;51.660;5.616;2022-07-29T09:00:51;101366.66;;;22.67;60.51
64544;BME280;50936;51.660;5.616;2022-07-29T09:03:24;101373.00;;;22.84;58.59
64544;BME280;50936;51.660;5.616;2022-07-29T09:05:53;101365.75;;;22.91;58.82
64544;BME280;50936;51.660;5.616;2022-07-29T09:08:21;101366.81;;;22.90;59.25
64544;BME280;50936;51.660;5.616;2022-07-29T09:10:48;101365.78;;;22.83;59.36
64544;BME280;50936;51.660;5.616;2022-07-29T09:13:15;101359.06;;;22.85;57.77
64544;BME280;50936;51.660;5.616;2022-07-29T09:15:42;101358.19;;;22.85;57.60
64544;BME280;50936;51.660;5.616;2022-07-29T09:18:09;101359.00;;;23.02;58.21
64544;BME280;50936;51.660;5.616;2022-07-29T09:20:56;101354.84;;;23.22;57.67
64544;BME280;50936;51.660;5.616;2022-07-29T09:24:08;101358.44;;;23.39;55.19
64544;BME280;50936;51.660;5.616;2022-07-29T09:26:45;101355.50;;;23.33;55.37
64544;BME280;50936;51.660;5.616;2022-07-29T09:29:14;101363.28;;;23.29;55.74
64544;BME280;50936;51.660;5.616;2022-07-29T09:31:48;101360.97;;;23.49;55.60
64544;BME280;50936;51.660;5.616;2022-07-29T09:34:27;101363.81;;;23.64;55.00
64544;BME280;50936;51.660;5.616;2022-07-29T09:36:56;101361.72;;;23.66;55.24
64544;BME280;50936;51.660;5.616;2022-07-29T09:39:41;101371.31;;;23.78;54.66
64544;BME280;50936;51.660;5.616;2022-07-29T09:42:12;101371.00;;;23.81;54.26
64544;BME280;50936;51.660;5.616;2022-07-29T09:44:48;101368.19;;;23.90;55.40
64544;BME280;50936;51.660;5.616;2022-07-29T09:47:18;101371.69;;;24.07;53.67
64544;BME280;50936;51.660;5.616;2022-07-29T09:49:54;101368.72;;;24.16;52.72
64544;BME280;50936;51.660;5.616;2022-07-29T09:52:28;101374.47;;;24.30;53.13
64544;BME280;50936;51.660;5.616;2022-07-29T09:55:09;101375.34;;;24.53;51.05
64544;BME280;50936;51.660;5.616;2022-07-29T09:57:44;101374.44;;;24.76;51.10
64544;BME280;50936;51.660;5.616;2022-07-29T10:00:14;101371.91;;;24.89;51.43
64544;BME280;50936;51.660;5.616;2022-07-29T10:02:46;101376.59;;;25.04;50.95
64544;BME280;50936;51.660;5.616;2022-07-29T10:05:25;101373.63;;;25.20;47.26
64544;BME280;50936;51.660;5.616;2022-07-29T10:08:01;101381.09;;;25.20;47.71
64544;BME280;50936;51.660;5.616;2022-07-29T10:10:33;101376.63;;;25.19;46.78
64544;BME280;50936;51.660;5.616;2022-07-29T10:13:06;101376.81;;;25.17;47.81
64544;BME280;50936;51.660;5.616;2022-07-29T10:15:43;101374.22;;;25.15;47.55
64544;BME280;50936;51.660;5.616;2022-07-29T10:18:13;101369.38;;;25.17;46.20
64544;BME280;50936;51.660;5.616;2022-07-29T10:20:43;101374.13;;;25.09;45.36
64544;BME280;50936;51.660;5.616;2022-07-29T10:23:10;101373.25;;;25.08;45.55
64544;BME280;50936;51.660;5.616;2022-07-29T10:25:39;101363.53;;;25.12;46.73
64544;BME280;50936;51.660;5.616;2022-07-29T10:28:12;101368.50;;;25.17;46.31
64544;BME280;50936;51.660;5.616;2022-07-29T10:30:43;101364.38;;;25.13;47.30
64544;BME280;50936;51.660;5.616;2022-07-29T10:33:26;101359.25;;;25.10;45.09
64544;BME280;50936;51.660;5.616;2022-07-29T10:36:32;101362.28;;;24.85;45.16
64544;BME280;50936;51.660;5.616;2022-07-29T10:39:31;101355.06;;;24.84;46.43
64544;BME280;50936;51.660;5.616;2022-07-29T10:42:21;101370.50;;;24.93;46.50
64544;BME280;50936;51.660;5.616;2022-07-29T10:45:00;101351.03;;;25.02;46.54
64544;BME280;50936;51.660;5.616;2022-07-29T10:47:30;101355.06;;;25.14;46.43
64544;BME280;50936;51.660;5.616;2022-07-29T10:50:03;101358.13;;;25.19;45.34
64544;BME280;50936;51.660;5.616;2022-07-29T10:55:35;101357.97;;;25.35;45.28
64544;BME280;50936;51.660;5.616;2022-07-29T10:58:17;101363.00;;;25.47;45.98
64544;BME280;50936;51.660;5.616;2022-07-29T11:00:51;101358.28;;;25.62;46.24
64544;BME280;50936;51.660;5.616;2022-07-29T11:03:45;101361.50;;;25.81;45.51
64544;BME280;50936;51.660;5.616;2022-07-29T11:06:18;101363.78;;;25.92;44.69
64544;BME280;50936;51.660;5.616;2022-07-29T11:09:22;101368.22;;;26.08;45.00
64544;BME280;50936;51.660;5.616;2022-07-29T11:12:03;101369.63;;;26.19;44.46
64544;BME280;50936;51.660;5.616;2022-07-29T11:17:21;101356.97;;;26.31;44.42
64544;BME280;50936;51.660;5.616;2022-07-29T11:19:50;101359.19;;;26.42;42.41
64544;BME280;50936;51.660;5.616;2022-07-29T11:22:36;101358.38;;;26.48;42.19
64544;BME280;50936;51.660;5.616;2022-07-29T11:25:15;101352.06;;;26.55;43.40
64544;BME280;50936;51.660;5.616;2022-07-29T11:27:43;101351.94;;;26.63;40.54
64544;BME280;50936;51.660;5.616;2022-07-29T11:30:11;101353.75;;;26.56;42.04
64544;BME280;50936;51.660;5.616;2022-07-29T11:32:42;101358.56;;;26.62;41.44
64544;BME280;50936;51.660;5.616;2022-07-29T11:35:19;101352.19;;;26.68;42.07
64544;BME280;50936;51.660;5.616;2022-07-29T11:38:23;101360.06;;;26.93;42.07
64544;BME280;50936;51.660;5.616;2022-07-29T11:41:22;101352.69;;;27.35;42.97
64544;BME280;50936;51.660;5.616;2022-07-29T11:43:52;101353.47;;;27.77;41.44
64544;BME280;50936;51.660;5.616;2022-07-29T11:49:23;101353.91;;;28.55;39.96
64544;BME280;50936;51.660;5.616;2022-07-29T11:51:58;101358.81;;;28.87;37.64
64544;BME280;50936;51.660;5.616;2022-07-29T11:54:33;101345.78;;;28.80;37.83
64544;BME280;50936;51.660;5.616;2022-07-29T11:57:21;101345.13;;;28.72;38.88
64544;BME280;50936;51.660;5.616;2022-07-29T12:00:03;101359.47;;;28.75;37.46
64544;BME280;50936;51.660;5.616;2022-07-29T12:02:39;101348.78;;;28.86;37.69
64544;BME280;50936;51.660;5.616;2022-07-29T12:05:14;101363.94;;;28.96;37.63
64544;BME280;50936;51.660;5.616;2022-07-29T12:08:14;101359.44;;;29.15;36.28
64544;BME280;50936;51.660;5.616;2022-07-29T12:10:46;101356.22;;;29.18;37.01
64544;BME280;50936;51.660;5.616;2022-07-29T12:13:18;101359.72;;;29.66;35.44
64544;BME280;50936;51.660;5.616;2022-07-29T12:15:54;101348.81;;;30.03;34.51
64544;BME280;50936;51.660;5.616;2022-07-29T12:18:27;101365.44;;;30.16;34.66
64544;BME280;50936;51.660;5.616;2022-07-29T12:21:01;101358.53;;;30.25;33.63
64544;BME280;50936;51.660;5.616;2022-07-29T12:23:32;101350.09;;;30.07;34.54
64544;BME280;50936;51.660;5.616;2022-07-29T12:26:04;101357.53;;;30.13;34.28
64544;BME280;50936;51.660;5.616;2022-07-29T12:28:37;101355.31;;;30.28;33.53
64544;BME280;50936;51.660;5.616;2022-07-29T12:31:05;101360.06;;;30.53;32.48
64544;BME280;50936;51.660;5.616;2022-07-29T12:33:39;101359.34;;;30.32;33.06
64544;BME280;50936;51.660;5.616;2022-07-29T12:36:07;101349.66;;;30.10;33.60
64544;BME280;50936;51.660;5.616;2022-07-29T12:38:43;101342.97;;;29.79;34.07
64544;BME280;50936;51.660;5.616;2022-07-29T12:41:11;101348.56;;;29.66;34.34
64544;BME280;50936;51.660;5.616;2022-07-29T12:43:51;101340.41;;;29.78;34.16
64544;BME280;50936;51.660;5.616;2022-07-29T12:46:20;101342.81;;;30.06;33.96
64544;BME280;50936;51.660;5.616;2022-07-29T12:48:51;101346.88;;;30.42;32.67
64544;BME280;50936;51.660;5.616;2022-07-29T12:51:34;101346.19;;;30.46;32.42
64544;BME280;50936;51.660;5.616;2022-07-29T12:54:04;101346.75;;;30.55;33.31
64544;BME280;50936;51.660;5.616;2022-07-29T12:56:42;101343.56;;;30.77;33.31
64544;BME280;50936;51.660;5.616;2022-07-29T12:59:18;101337.38;;;31.00;31.84
64544;BME280;50936;51.660;5.616;2022-07-29T13:01:46;101334.34;;;31.01;31.97
64544;BME280;50936;51.660;5.616;2022-07-29T13:04:26;101342.09;;;30.99;31.97
64544;BME280;50936;51.660;5.616;2022-07-29T13:07:07;101332.09;;;31.10;32.28
64544;BME280;50936;51.660;5.616;2022-07-29T13:10:09;101344.41;;;31.21;31.09
64544;BME280;50936;51.660;5.616;2022-07-29T13:12:38;101337.06;;;31.26;31.37
64544;BME280;50936;51.660;5.616;2022-07-29T13:15:12;101328.38;;;31.35;30.94
64544;BME280;50936;51.660;5.616;2022-07-29T13:17:43;101336.38;;;31.31;30.96
64544;BME280;50936;51.660;5.616;2022-07-29T13:20:13;101347.03;;;31.16;31.05
64544;BME280;50936;51.660;5.616;2022-07-29T13:22:41;101339.59;;;30.91;31.60
64544;BME280;50936;51.660;5.616;2022-07-29T13:25:09;101342.72;;;30.51;31.82
64544;BME280;50936;51.660;5.616;2022-07-29T13:27:38;101343.69;;;30.00;32.79
64544;BME280;50936;51.660;5.616;2022-07-29T13:30:11;101333.19;;;29.56;33.01
64544;BME280;50936;51.660;5.616;2022-07-29T13:32:38;101338.88;;;29.23;34.53
64544;BME280;50936;51.660;5.616;2022-07-29T13:35:06;101346.38;;;29.03;34.96